Terminal Aerodrome Forecast
Issued by NWS

Home | Current Version | Previous Version | Text Only | Print | Product List | Glossary On
Versions: 1 2 3 4 5 6 7 8 9 10 11 12 13 14 15 16 17 18 19 20 21 22 23 24 25 26 27 28 29
000
FTUS42 KCAE 071607 AAB
TAFOGB
TAF AMD
KOGB 071607Z 0716/0812 19006KT P6SM VCSH SCT060 BKN100
      TEMPO 0716/0719 4SM SHRA BKN040
     FM071900 20008KT P6SM SCT050
     FM080200 18005KT P6SM SCT250=

USA.gov is the U.S. government's official web portal to all federal, state and local government web resources and services.